Terminal Aerodrome Forecast
Issued by NWS

Home | Current Version | Previous Version | Text Only | Print | Product List | Glossary Off
Versions: 1 2 3 4 5 6 7 8 9 10 11 12 13 14 15

000
FTUS42 KMHX 241100
TAFPGV
TAF
KPGV 241120Z 2412/2512 04008G15KT P6SM SCT050
     FM241400 05012G20KT P6SM SCT030 BKN050
     FM250000 03003KT P6SM SCT250
      AMD LTD TO CLD VIS AND WIND=

USA.gov is the U.S. government's official web portal to all federal, state and local government web resources and services.